Time;durP1;ratioP1;P1;durP2;ratioP2;P2;SDS_P1;SDS_P2;PMS_P1;PMS_P2;Temp;Humidity;BMP_temperature;BMP_pressure;BME280_temperature;BME280_humidity;BME280_pressure;Samples;Min_cycle;Max_cycle;Signal;HPM_P1;HPM_P2
2023/08/11 00:02:05;;;;;;;7.30;7.20;;;16.60;99.90;;;;;;5093317;28;20454;-68
2023/08/11 00:04:32;;;;;;;7.20;7.10;;;16.60;99.90;;;;;;5099883;28;20458;-67
2023/08/11 00:07:00;;;;;;;7.60;7.50;;;16.50;99.90;;;;;;5097137;28;20946;-68
2023/08/11 00:09:27;;;;;;;7.30;7.20;;;16.50;99.90;;;;;;5089504;28;20466;-68
2023/08/11 00:11:55;;;;;;;7.30;7.20;;;16.60;99.90;;;;;;5103614;28;20456;-67
2023/08/11 00:14:22;;;;;;;6.60;6.50;;;16.70;99.90;;;;;;5097781;28;20823;-69
2023/08/11 00:16:49;;;;;;;6.50;6.40;;;16.80;99.90;;;;;;5103852;28;20591;-68
2023/08/11 00:19:16;;;;;;;6.67;6.57;;;16.80;99.90;;;;;;5093477;28;20465;-68
2023/08/11 00:21:44;;;;;;;6.90;6.80;;;16.90;99.90;;;;;;5098746;28;20488;-68
2023/08/11 00:24:12;;;;;;;7.10;7.00;;;16.80;99.90;;;;;;5093790;28;20543;-69
2023/08/11 00:26:38;;;;;;;7.30;7.20;;;16.80;99.90;;;;;;5108344;27;20522;-68
2023/08/11 00:29:07;;;;;;;7.40;7.30;;;16.80;99.90;;;;;;5096341;28;20464;-68
2023/08/11 00:31:35;;;;;;;7.67;7.57;;;16.80;99.90;;;;;;5098392;28;20751;-69
2023/08/11 00:34:03;;;;;;;7.70;7.60;;;16.70;99.90;;;;;;5089308;28;20571;-68
2023/08/11 00:36:30;;;;;;;7.40;7.30;;;16.70;99.90;;;;;;5089490;28;20459;-68
2023/08/11 00:39:00;;;;;;;7.30;7.20;;;16.60;99.90;;;;;;5098530;28;20518;-69
2023/08/11 00:41:27;;;;;;;6.90;6.80;;;16.50;99.90;;;;;;5089148;28;20564;-68
2023/08/11 00:43:54;;;;;;;6.90;6.80;;;16.40;99.90;;;;;;5104658;28;20464;-69
2023/08/11 00:46:24;;;;;;;6.90;6.80;;;16.40;99.90;;;;;;5107702;28;20453;-69
2023/08/11 00:48:52;;;;;;;6.90;6.80;;;16.20;99.90;;;;;;5090313;28;20458;-68
2023/08/11 00:51:22;;;;;;;6.80;6.70;;;16.20;99.90;;;;;;5091769;28;20462;-67
2023/08/11 00:53:49;;;;;;;6.90;6.80;;;16.10;99.90;;;;;;5087134;28;20566;-68
2023/08/11 00:56:19;;;;;;;6.60;6.50;;;16.10;99.90;;;;;;5103144;28;20558;-68
2023/08/11 00:58:47;;;;;;;6.40;6.30;;;16.00;99.90;;;;;;5100987;28;20467;-68
2023/08/11 01:01:14;;;;;;;6.70;6.60;;;16.00;99.90;;;;;;5099121;28;20895;-68
2023/08/11 01:03:45;;;;;;;6.10;6.00;;;16.10;99.90;;;;;;5094058;28;20458;-68
2023/08/11 01:06:18;;;;;;;6.10;6.00;;;16.20;99.90;;;;;;5098623;28;20552;-67
2023/08/11 01:08:53;;;;;;;6.30;6.20;;;16.10;99.90;;;;;;5088650;28;20516;-69
2023/08/11 01:11:27;;;;;;;6.30;6.20;;;16.10;99.90;;;;;;5102057;28;20487;-67
2023/08/11 01:14:02;;;;;;;6.30;6.20;;;16.00;99.90;;;;;;5085470;28;20469;-68
2023/08/11 01:16:30;;;;;;;6.10;6.00;;;16.00;99.90;;;;;;5092486;28;20484;-68
2023/08/11 01:19:00;;;;;;;6.10;6.00;;;16.00;99.90;;;;;;5092922;28;20503;-68
2023/08/11 01:21:28;;;;;;;6.33;6.23;;;16.00;99.90;;;;;;5103688;28;20883;-68
2023/08/11 01:23:57;;;;;;;6.00;5.90;;;16.00;99.90;;;;;;5103818;28;20450;-69
2023/08/11 01:26:24;;;;;;;6.13;6.03;;;16.00;99.90;;;;;;5099012;28;20464;-68
2023/08/11 01:28:53;;;;;;;6.50;6.40;;;16.00;99.90;;;;;;5095910;28;20453;-68
2023/08/11 01:31:21;;;;;;;6.17;6.07;;;16.10;99.90;;;;;;5102353;28;20461;-67
2023/08/11 01:33:47;;;;;;;6.20;6.10;;;16.20;99.90;;;;;;5099102;28;20552;-69
2023/08/11 01:36:14;;;;;;;6.27;6.17;;;16.20;99.90;;;;;;5100395;28;20472;-69
2023/08/11 01:38:42;;;;;;;6.17;6.07;;;16.20;99.90;;;;;;5094607;28;20469;-68
2023/08/11 01:41:11;;;;;;;6.17;6.07;;;16.20;99.90;;;;;;5093916;28;20501;-68
2023/08/11 01:43:40;;;;;;;5.70;5.60;;;16.20;99.90;;;;;;5104139;28;20457;-68
2023/08/11 01:46:09;;;;;;;5.87;5.77;;;16.10;99.90;;;;;;5099563;28;20963;-68
2023/08/11 01:48:37;;;;;;;5.50;5.40;;;16.10;99.90;;;;;;5097565;28;20469;-68
2023/08/11 01:51:04;;;;;;;5.50;5.40;;;16.00;99.90;;;;;;5104688;28;20453;-68
2023/08/11 01:53:31;;;;;;;5.60;5.50;;;16.00;99.90;;;;;;5100240;28;20850;-68
2023/08/11 01:55:58;;;;;;;5.50;5.40;;;16.00;99.90;;;;;;5088243;28;20465;-68
2023/08/11 01:58:27;;;;;;;5.60;5.50;;;16.00;99.90;;;;;;5096369;28;20466;-69
2023/08/11 02:00:54;;;;;;;6.20;6.10;;;16.00;99.90;;;;;;5097509;28;20485;-69
2023/08/11 02:03:21;;;;;;;6.43;6.33;;;16.00;99.90;;;;;;5106238;28;20453;-69
2023/08/11 02:05:48;;;;;;;6.80;6.70;;;16.00;99.90;;;;;;5095416;28;20776;-68
2023/08/11 02:08:17;;;;;;;7.37;7.27;;;16.10;99.90;;;;;;5104796;28;20453;-69
2023/08/11 02:10:45;;;;;;;7.53;7.43;;;16.10;99.90;;;;;;5096032;28;20477;-69
2023/08/11 02:13:12;;;;;;;7.87;7.77;;;16.10;99.90;;;;;;5091497;28;20552;-68
2023/08/11 02:15:41;;;;;;;8.00;7.90;;;16.20;99.90;;;;;;5104701;28;20483;-69
2023/08/11 02:18:08;;;;;;;8.10;8.00;;;16.20;99.90;;;;;;5095397;28;20450;-68
2023/08/11 02:20:35;;;;;;;8.63;8.53;;;16.20;99.90;;;;;;5092525;28;20531;-68
2023/08/11 02:23:02;;;;;;;8.40;8.30;;;16.20;99.90;;;;;;5094293;28;20961;-68
2023/08/11 02:25:29;;;;;;;8.80;8.70;;;16.20;99.90;;;;;;5091762;28;20532;-69
2023/08/11 02:27:56;;;;;;;9.00;8.90;;;16.20;99.90;;;;;;5102908;28;20458;-68
2023/08/11 02:30:24;;;;;;;9.20;9.00;;;16.20;99.90;;;;;;5101414;28;20493;-69
2023/08/11 02:32:52;;;;;;;9.20;9.00;;;16.30;99.90;;;;;;5100418;28;20982;-68
2023/08/11 02:35:19;;;;;;;9.70;9.50;;;16.20;99.90;;;;;;5089196;28;20468;-68
2023/08/11 02:37:47;;;;;;;9.10;8.90;;;16.20;99.90;;;;;;5091616;28;20978;-68
2023/08/11 02:40:15;;;;;;;9.40;9.20;;;16.20;99.90;;;;;;5102936;28;20515;-68
2023/08/11 02:42:48;;;;;;;9.40;9.20;;;16.20;99.90;;;;;;5093695;28;20517;-68
2023/08/11 02:45:15;;;;;;;9.60;9.40;;;16.20;99.90;;;;;;5102154;28;20865;-68
2023/08/11 02:47:42;;;;;;;10.20;10.00;;;16.20;99.90;;;;;;5098406;28;20496;-68
2023/08/11 02:50:12;;;;;;;9.80;9.60;;;16.20;99.90;;;;;;5099620;28;20490;-67
2023/08/11 02:52:39;;;;;;;9.50;9.30;;;16.20;99.90;;;;;;5100887;28;20858;-69
2023/08/11 02:55:08;;;;;;;9.80;9.60;;;16.10;99.90;;;;;;5099056;28;20457;-68
2023/08/11 02:57:36;;;;;;;9.73;9.53;;;16.20;99.90;;;;;;5107904;28;20512;-68
2023/08/11 03:00:09;;;;;;;10.13;9.93;;;16.20;99.90;;;;;;5101458;28;20466;-68
2023/08/11 03:02:36;;;;;;;9.70;9.50;;;16.20;99.90;;;;;;5098076;28;20492;-68
2023/08/11 03:05:07;;;;;;;9.80;9.60;;;16.20;99.90;;;;;;5101764;28;20468;-69
2023/08/11 03:07:35;;;;;;;10.20;10.00;;;16.20;99.90;;;;;;5100226;28;20768;-68
2023/08/11 03:10:03;;;;;;;10.10;9.90;;;16.20;99.90;;;;;;5106503;28;20570;-69
2023/08/11 03:12:30;;;;;;;10.00;9.80;;;16.20;99.90;;;;;;5097763;28;20464;-68
2023/08/11 03:14:57;;;;;;;10.30;10.10;;;16.20;99.90;;;;;;5097466;28;20561;-68
2023/08/11 03:17:24;;;;;;;10.20;10.00;;;16.20;99.90;;;;;;5100898;28;20458;-68
2023/08/11 03:19:51;;;;;;;10.50;10.30;;;16.20;99.90;;;;;;5104435;28;20456;-67
2023/08/11 03:22:19;;;;;;;10.23;10.03;;;16.20;99.90;;;;;;5090792;28;20494;-67
2023/08/11 03:24:47;;;;;;;9.90;9.70;;;16.10;99.90;;;;;;5091039;28;20450;-68
2023/08/11 03:27:16;;;;;;;10.10;9.90;;;16.00;99.90;;;;;;5089645;28;20462;-69
2023/08/11 03:29:43;;;;;;;9.90;9.70;;;16.00;99.90;;;;;;5090835;28;20454;-68
2023/08/11 03:32:10;;;;;;;10.10;9.90;;;15.90;99.90;;;;;;5097643;28;20464;-68
2023/08/11 03:34:38;;;;;;;10.00;9.80;;;15.80;99.90;;;;;;5090892;28;20458;-67
2023/08/11 03:37:06;;;;;;;10.60;10.40;;;15.80;99.90;;;;;;5090596;28;20449;-68
2023/08/11 03:39:34;;;;;;;9.90;9.70;;;15.70;99.90;;;;;;5093393;28;21032;-68
2023/08/11 03:42:02;;;;;;;10.17;9.97;;;15.70;99.90;;;;;;5098681;28;20488;-68
2023/08/11 03:44:29;;;;;;;9.80;9.60;;;15.70;99.90;;;;;;5102552;28;20858;-69
2023/08/11 03:46:57;;;;;;;9.80;9.60;;;15.70;99.90;;;;;;5097311;27;20518;-68
2023/08/11 03:49:25;;;;;;;10.27;10.07;;;15.60;99.90;;;;;;5102987;28;20464;-68
2023/08/11 03:51:52;;;;;;;9.70;9.50;;;15.60;99.90;;;;;;5095002;28;20464;-68
2023/08/11 03:54:19;;;;;;;9.30;9.10;;;15.60;99.90;;;;;;5090834;28;20485;-68
2023/08/11 03:56:47;;;;;;;9.90;9.70;;;15.50;99.90;;;;;;5097005;28;20836;-68
2023/08/11 03:59:15;;;;;;;9.90;9.70;;;15.40;99.90;;;;;;5092438;28;20515;-67
2023/08/11 04:01:42;;;;;;;9.87;9.67;;;15.30;99.90;;;;;;5101352;28;20477;-67
2023/08/11 04:04:10;;;;;;;9.40;9.20;;;15.30;99.90;;;;;;5108548;28;20938;-68
2023/08/11 04:06:37;;;;;;;9.30;9.10;;;15.30;99.90;;;;;;5088853;28;20493;-68
2023/08/11 04:09:06;;;;;;;9.07;8.90;;;15.30;99.90;;;;;;5094284;28;20461;-68
2023/08/11 04:11:33;;;;;;;8.90;8.80;;;15.30;99.90;;;;;;5107672;28;20492;-67
2023/08/11 04:14:00;;;;;;;8.90;8.80;;;15.30;99.90;;;;;;5107150;27;20453;-68
2023/08/11 04:16:29;;;;;;;9.30;9.10;;;15.20;99.90;;;;;;5097818;28;20856;-68
2023/08/11 04:18:56;;;;;;;8.67;8.57;;;15.20;99.90;;;;;;5098999;28;20540;-68
2023/08/11 04:21:24;;;;;;;8.37;8.27;;;15.10;99.90;;;;;;5097166;28;20481;-68
2023/08/11 04:23:50;;;;;;;8.30;8.20;;;15.10;99.90;;;;;;5099266;28;20528;-68
2023/08/11 04:26:18;;;;;;;8.00;7.90;;;15.10;99.90;;;;;;5099437;28;20454;-68
2023/08/11 04:28:44;;;;;;;8.40;8.30;;;15.10;99.90;;;;;;5103389;28;20473;-68
2023/08/11 04:31:11;;;;;;;8.30;8.20;;;15.10;99.90;;;;;;5090695;28;20461;-67
2023/08/11 04:33:42;;;;;;;8.37;8.27;;;15.10;99.90;;;;;;5104362;28;20822;-67
2023/08/11 04:36:09;;;;;;;8.73;8.63;;;15.10;99.90;;;;;;5098383;28;20458;-68
2023/08/11 04:38:36;;;;;;;7.87;7.77;;;15.00;99.90;;;;;;5108049;28;20463;-68
2023/08/11 04:41:03;;;;;;;8.00;7.90;;;15.10;99.90;;;;;;5094248;27;20480;-69
2023/08/11 04:43:30;;;;;;;7.30;7.20;;;15.10;99.90;;;;;;5104606;28;20830;-68
2023/08/11 04:45:57;;;;;;;7.40;7.30;;;15.10;99.90;;;;;;5104531;27;20476;-67
2023/08/11 04:48:24;;;;;;;7.30;7.20;;;15.10;99.90;;;;;;5090265;28;20461;-68
2023/08/11 04:50:53;;;;;;;8.00;7.90;;;15.00;99.90;;;;;;5092676;28;20476;-68
2023/08/11 04:53:21;;;;;;;7.93;7.83;;;15.10;99.90;;;;;;5093621;28;20983;-68
2023/08/11 04:55:48;;;;;;;8.00;7.90;;;15.10;99.90;;;;;;5088148;28;20480;-68
2023/08/11 04:58:15;;;;;;;8.00;7.90;;;15.10;99.90;;;;;;5092333;28;20506;-69
2023/08/11 05:00:43;;;;;;;8.37;8.27;;;15.20;99.90;;;;;;5104052;28;20529;-68
2023/08/11 05:03:10;;;;;;;8.13;8.03;;;15.20;99.90;;;;;;5092182;28;20489;-67
2023/08/11 05:05:36;;;;;;;8.00;7.90;;;15.30;99.90;;;;;;5090516;28;20501;-69
2023/08/11 05:08:05;;;;;;;8.10;8.00;;;15.40;99.90;;;;;;5090049;28;20829;-69
2023/08/11 05:10:33;;;;;;;8.67;8.57;;;15.50;99.90;;;;;;5097906;28;20832;-67
2023/08/11 05:12:59;;;;;;;8.40;8.30;;;15.60;99.90;;;;;;5103427;28;20463;-68
2023/08/11 05:15:27;;;;;;;8.60;8.50;;;15.60;99.90;;;;;;5094051;28;21053;-68
2023/08/11 05:17:54;;;;;;;8.20;8.10;;;15.70;99.90;;;;;;5096490;28;20829;-68
2023/08/11 05:20:21;;;;;;;8.70;8.60;;;15.70;99.90;;;;;;5087674;28;20470;-69
2023/08/11 05:22:49;;;;;;;8.83;8.73;;;15.80;99.90;;;;;;5098044;28;20588;-68
2023/08/11 05:25:17;;;;;;;8.50;8.40;;;15.90;99.90;;;;;;5097468;28;20803;-69
2023/08/11 05:27:44;;;;;;;8.47;8.37;;;16.00;99.90;;;;;;5091651;28;20454;-68
2023/08/11 05:30:12;;;;;;;9.70;9.50;;;16.00;99.90;;;;;;5088621;28;20464;-68
2023/08/11 05:32:39;;;;;;;9.20;9.00;;;16.20;99.90;;;;;;5094366;28;20527;-68
2023/08/11 05:35:09;;;;;;;9.70;9.50;;;16.20;99.90;;;;;;5099619;28;20457;-68
2023/08/11 05:37:37;;;;;;;10.20;10.00;;;16.30;99.90;;;;;;5103460;28;20490;-68
2023/08/11 05:40:07;;;;;;;10.20;10.00;;;16.40;99.90;;;;;;5094256;28;20458;-68
2023/08/11 05:42:35;;;;;;;10.00;9.80;;;16.50;99.90;;;;;;5087740;28;20835;-68
2023/08/11 05:45:03;;;;;;;10.10;9.90;;;16.60;99.90;;;;;;5102002;28;20535;-68
2023/08/11 05:47:30;;;;;;;9.87;9.67;;;16.70;99.90;;;;;;5089349;28;20736;-67
2023/08/11 05:49:58;;;;;;;10.10;9.90;;;16.80;99.90;;;;;;5088309;28;20449;-68
2023/08/11 05:52:25;;;;;;;11.00;10.70;;;16.80;99.90;;;;;;5087973;28;20910;-67
2023/08/11 05:54:52;;;;;;;11.10;10.80;;;16.90;99.90;;;;;;5087798;28;20459;-69
2023/08/11 05:57:19;;;;;;;10.60;10.40;;;17.00;99.90;;;;;;5091345;28;20469;-68
2023/08/11 05:59:47;;;;;;;11.10;10.80;;;17.20;99.90;;;;;;5090553;28;20869;-67
2023/08/11 06:02:14;;;;;;;11.60;11.30;;;17.30;99.90;;;;;;5098608;28;20477;-69
2023/08/11 06:04:42;;;;;;;10.60;10.40;;;17.40;99.90;;;;;;5087332;28;20469;-69
2023/08/11 06:07:09;;;;;;;10.70;10.50;;;17.60;99.90;;;;;;5094014;28;20995;-69
2023/08/11 06:09:36;;;;;;;10.87;10.67;;;17.70;99.90;;;;;;5094235;28;20461;-69
2023/08/11 06:12:04;;;;;;;10.90;10.70;;;17.80;99.90;;;;;;5091553;28;20539;-68
2023/08/11 06:14:31;;;;;;;11.17;10.87;;;17.90;99.90;;;;;;5090610;28;20457;-68
2023/08/11 06:17:00;;;;;;;11.03;10.80;;;17.90;99.90;;;;;;5098943;28;20480;-68
2023/08/11 06:19:26;;;;;;;11.50;11.20;;;18.00;99.90;;;;;;5095616;28;20461;-67
2023/08/11 06:21:55;;;;;;;11.20;10.90;;;18.10;99.90;;;;;;5092684;28;20477;-68
2023/08/11 06:24:23;;;;;;;11.40;11.10;;;18.20;99.90;;;;;;5099965;28;20545;-68
2023/08/11 06:26:51;;;;;;;11.80;11.50;;;18.30;99.90;;;;;;5095540;28;20552;-68
2023/08/11 06:29:19;;;;;;;12.10;11.80;;;18.40;99.90;;;;;;5097874;28;20453;-68
2023/08/11 06:31:46;;;;;;;11.40;11.10;;;18.40;99.90;;;;;;5097545;28;20450;-69
2023/08/11 06:34:17;;;;;;;11.40;11.10;;;18.60;99.90;;;;;;5095882;28;20461;-68
2023/08/11 06:36:44;;;;;;;11.27;10.97;;;18.60;99.90;;;;;;5093098;28;20465;-69
2023/08/11 06:39:11;;;;;;;11.70;11.40;;;18.60;99.90;;;;;;5092960;28;20473;-69
2023/08/11 06:41:39;;;;;;;11.87;11.57;;;18.80;99.90;;;;;;5090944;28;20543;-68
2023/08/11 06:44:06;;;;;;;11.70;11.40;;;19.00;99.90;;;;;;5092482;28;20458;-69
2023/08/11 06:46:33;;;;;;;11.70;11.40;;;19.10;99.90;;;;;;5090021;28;20465;-69
2023/08/11 06:49:00;;;;;;;11.80;11.50;;;19.10;99.90;;;;;;5092322;28;20507;-69
2023/08/11 06:51:28;;;;;;;11.90;11.60;;;19.20;99.90;;;;;;5098410;28;20460;-69
2023/08/11 06:53:56;;;;;;;12.20;11.90;;;19.30;99.90;;;;;;5095457;28;20462;-70
2023/08/11 06:56:23;;;;;;;11.80;11.50;;;19.40;99.90;;;;;;5098224;28;20483;-69
2023/08/11 06:58:51;;;;;;;12.03;11.73;;;19.50;99.90;;;;;;5094691;28;20469;-69
2023/08/11 07:01:18;;;;;;;12.50;12.20;;;19.60;99.90;;;;;;5103019;28;20449;-69
2023/08/11 07:03:45;;;;;;;11.90;11.60;;;19.70;99.90;;;;;;5095869;28;20909;-69
2023/08/11 07:06:12;;;;;;;12.20;11.90;;;20.00;99.90;;;;;;5093334;27;20458;-69
2023/08/11 07:08:42;;;;;;;12.47;12.17;;;20.20;99.90;;;;;;5102779;28;20464;-69
2023/08/11 07:11:09;;;;;;;12.50;12.20;;;20.20;99.90;;;;;;5095619;28;20964;-69
2023/08/11 07:13:36;;;;;;;12.83;12.43;;;20.40;99.90;;;;;;5088669;28;20831;-70
2023/08/11 07:16:03;;;;;;;13.10;12.70;;;20.60;99.90;;;;;;5078692;28;20491;-67
2023/08/11 07:18:30;;;;;;;13.00;12.60;;;20.60;99.90;;;;;;5093572;28;20453;-68
2023/08/11 07:20:57;;;;;;;13.20;12.80;;;20.70;99.90;;;;;;5093668;28;20498;-68
2023/08/11 07:23:24;;;;;;;12.73;12.43;;;20.90;99.90;;;;;;5091000;28;20490;-69
2023/08/11 07:25:52;;;;;;;12.83;12.47;;;21.00;99.90;;;;;;5090476;28;20466;-68
2023/08/11 07:28:19;;;;;;;12.90;12.50;;;21.00;99.90;;;;;;5097915;28;20470;-69
2023/08/11 07:30:50;;;;;;;13.00;12.60;;;21.10;99.90;;;;;;5100335;28;20469;-68
2023/08/11 07:33:16;;;;;;;12.90;12.50;;;21.30;99.90;;;;;;5089895;28;20559;-69
2023/08/11 07:35:43;;;;;;;12.90;12.50;;;21.30;99.90;;;;;;5093781;28;20461;-69
2023/08/11 07:38:10;;;;;;;13.07;12.67;;;21.40;99.90;;;;;;5091239;28;20554;-69
2023/08/11 07:40:37;;;;;;;13.23;12.83;;;21.40;99.90;;;;;;5088106;28;20489;-70
2023/08/11 07:43:06;;;;;;;13.30;12.90;;;21.50;99.90;;;;;;5087568;28;20489;-68
2023/08/11 07:45:34;;;;;;;12.93;12.53;;;21.60;99.90;;;;;;5096222;28;20457;-68
2023/08/11 07:48:01;;;;;;;13.10;12.70;;;21.70;99.90;;;;;;5094270;28;21293;-70
2023/08/11 07:50:28;;;;;;;13.40;13.00;;;21.80;99.90;;;;;;5093878;28;20462;-68
2023/08/11 07:52:55;;;;;;;13.40;13.00;;;21.90;99.90;;;;;;5093769;28;21200;-69
2023/08/11 07:55:22;;;;;;;13.43;13.03;;;22.10;99.90;;;;;;5090974;28;20459;-68
2023/08/11 07:57:50;;;;;;;13.10;12.70;;;22.30;99.90;;;;;;5091818;28;20473;-69
2023/08/11 08:00:21;;;;;;;13.00;12.60;;;22.40;99.90;;;;;;5097851;28;20465;-68
2023/08/11 08:02:48;;;;;;;13.40;13.00;;;22.50;99.90;;;;;;5095598;28;20477;-68
2023/08/11 08:05:15;;;;;;;13.23;12.83;;;22.60;99.90;;;;;;5091105;28;20462;-70
2023/08/11 08:07:41;;;;;;;14.03;13.63;;;22.80;99.90;;;;;;5099718;28;20464;-68
2023/08/11 08:10:09;;;;;;;13.80;13.40;;;22.90;99.90;;;;;;5096184;28;20489;-69
2023/08/11 08:12:37;;;;;;;14.07;13.67;;;23.20;99.90;;;;;;5093687;28;21070;-69
2023/08/11 08:15:05;;;;;;;13.90;13.50;;;23.30;99.90;;;;;;5096823;28;20470;-68
2023/08/11 08:17:33;;;;;;;14.10;13.70;;;23.20;99.90;;;;;;5092011;28;20560;-69
2023/08/11 08:20:01;;;;;;;13.67;13.27;;;23.30;99.90;;;;;;5092919;28;20465;-68
2023/08/11 08:22:28;;;;;;;14.10;13.70;;;23.50;99.90;;;;;;5088967;28;20488;-69
2023/08/11 08:24:56;;;;;;;14.13;13.73;;;23.60;99.90;;;;;;5095978;28;20464;-69
2023/08/11 08:27:24;;;;;;;14.00;13.60;;;23.80;99.90;;;;;;5097332;28;20675;-69
2023/08/11 08:29:53;;;;;;;14.73;14.23;;;23.90;99.90;;;;;;5096943;28;20548;-68
2023/08/11 08:32:20;;;;;;;14.03;13.63;;;24.00;99.90;;;;;;5099019;28;20598;-69
2023/08/11 08:34:49;;;;;;;13.63;13.23;;;24.20;99.90;;;;;;5090491;28;20465;-70
2023/08/11 08:37:16;;;;;;;13.90;13.50;;;24.30;99.90;;;;;;5093875;28;20464;-69
2023/08/11 08:39:44;;;;;;;14.30;13.90;;;24.50;99.90;;;;;;5096562;28;20552;-70
2023/08/11 08:42:13;;;;;;;14.30;13.90;;;24.80;99.90;;;;;;5091773;28;20531;-70
2023/08/11 08:44:41;;;;;;;14.27;13.87;;;25.30;99.90;;;;;;5091546;28;20458;-70
2023/08/11 08:47:09;;;;;;;14.87;14.37;;;26.00;99.90;;;;;;5090915;28;20709;-69
2023/08/11 08:49:37;;;;;;;15.30;14.80;;;26.90;99.90;;;;;;5097891;28;20798;-69
2023/08/11 08:52:06;;;;;;;14.97;14.47;;;27.80;99.90;;;;;;5096341;28;20480;-70
2023/08/11 08:54:34;;;;;;;15.00;14.50;;;28.80;99.90;;;;;;5102292;28;20935;-70
2023/08/11 08:57:02;;;;;;;15.00;14.50;;;29.60;99.90;;;;;;5097542;28;20458;-69
2023/08/11 08:59:29;;;;;;;15.47;14.97;;;30.20;99.90;;;;;;5095638;28;20488;-69
2023/08/11 09:01:58;;;;;;;14.60;14.20;;;30.20;99.90;;;;;;5091495;28;20548;-69
2023/08/11 09:04:26;;;;;;;15.00;14.50;;;30.70;99.90;;;;;;5096911;28;20880;-70
2023/08/11 09:06:53;;;;;;;15.40;14.90;;;31.20;99.90;;;;;;5092109;28;20472;-70
2023/08/11 09:09:23;;;;;;;15.50;15.00;;;31.60;99.90;;;;;;5095042;28;20557;-69
2023/08/11 09:11:50;;;;;;;15.47;14.97;;;31.80;99.90;;;;;;5093521;28;20465;-69
2023/08/11 09:14:19;;;;;;;15.47;14.97;;;31.90;99.90;;;;;;5089593;28;20968;-70
2023/08/11 09:16:47;;;;;;;15.37;14.87;;;31.50;99.90;;;;;;5094796;28;20492;-69
2023/08/11 09:19:15;;;;;;;14.93;14.50;;;31.90;99.90;;;;;;5098067;28;20886;-69
2023/08/11 09:21:44;;;;;;;14.47;14.07;;;31.90;99.90;;;;;;5090634;28;20469;-70
2023/08/11 09:24:11;;;;;;;15.10;14.60;;;32.20;99.90;;;;;;5088944;28;20544;-70
2023/08/11 09:26:43;;;;;;;15.60;15.10;;;32.10;99.50;;;;;;5092930;28;20460;-69
2023/08/11 09:29:10;;;;;;;15.27;14.77;;;32.00;98.80;;;;;;5103224;28;20497;-69
2023/08/11 09:31:37;;;;;;;15.20;14.70;;;32.20;98.20;;;;;;5102072;28;20577;-69
2023/08/11 09:34:12;;;;;;;15.10;14.60;;;32.30;98.00;;;;;;5097977;28;20460;-69
2023/08/11 09:36:40;;;;;;;14.70;14.20;;;32.40;97.00;;;;;;5092641;28;20533;-70
2023/08/11 09:39:07;;;;;;;15.03;14.53;;;32.50;97.20;;;;;;5092886;28;20464;-69
2023/08/11 09:41:41;;;;;;;14.83;14.33;;;32.60;96.70;;;;;;5094120;28;20540;-69
2023/08/11 09:44:09;;;;;;;15.30;14.80;;;32.20;96.60;;;;;;5089448;28;20493;-70
2023/08/11 09:46:40;;;;;;;15.10;14.60;;;31.80;94.70;;;;;;5093916;28;21226;-70
2023/08/11 09:49:07;;;;;;;15.20;14.70;;;32.10;95.50;;;;;;5098422;28;20465;-69
2023/08/11 09:51:35;;;;;;;15.40;14.90;;;32.60;94.40;;;;;;5094536;28;20461;-70
2023/08/11 09:54:06;;;;;;;15.47;14.97;;;33.20;93.90;;;;;;5088619;28;20469;-69
2023/08/11 09:56:36;;;;;;;15.20;14.70;;;33.40;92.30;;;;;;5092748;28;20458;-69
2023/08/11 09:59:06;;;;;;;14.97;14.47;;;33.10;92.60;;;;;;5094814;28;20530;-70
2023/08/11 10:01:36;;;;;;;14.80;14.40;;;33.10;91.70;;;;;;5094282;28;20553;-69
2023/08/11 10:04:10;;;;;;;14.77;14.37;;;33.10;91.30;;;;;;5101490;28;20584;-71
2023/08/11 10:06:41;;;;;;;15.40;14.90;;;33.40;90.90;;;;;;5089791;28;20450;-69
2023/08/11 10:09:13;;;;;;;14.70;14.30;;;33.40;89.50;;;;;;5088486;28;20503;-70
2023/08/11 10:11:43;;;;;;;14.60;14.20;;;32.90;90.40;;;;;;5102533;28;20480;-70
2023/08/11 10:14:17;;;;;;;14.57;14.17;;;33.20;89.40;;;;;;5095129;28;20838;-70
2023/08/11 10:16:46;;;;;;;14.77;14.37;;;33.60;90.80;;;;;;5093616;28;20497;-70
2023/08/11 10:19:14;;;;;;;14.60;14.20;;;33.50;89.30;;;;;;5088309;28;20466;-71
2023/08/11 10:21:41;;;;;;;14.23;13.83;;;33.30;89.50;;;;;;5104489;28;20453;-71
2023/08/11 10:24:10;;;;;;;15.37;14.87;;;33.60;88.70;;;;;;5093064;28;20875;-70
2023/08/11 10:26:37;;;;;;;15.00;14.50;;;34.20;88.10;;;;;;5076702;28;21034;-71
2023/08/11 10:29:05;;;;;;;15.50;15.00;;;34.70;86.40;;;;;;5093749;28;20456;-67
2023/08/11 10:31:34;;;;;;;15.10;14.63;;;35.00;88.90;;;;;;5101272;28;20453;-70
2023/08/11 10:34:07;;;;;;;14.43;14.03;;;35.40;85.00;;;;;;5088767;28;20515;-70
2023/08/11 10:36:34;;;;;;;14.10;13.70;;;34.80;82.80;;;;;;5086987;28;20473;-69
2023/08/11 10:39:03;;;;;;;14.47;14.07;;;33.90;84.80;;;;;;5106093;28;20502;-70
2023/08/11 10:41:30;;;;;;;14.50;14.10;;;34.40;85.70;;;;;;5094029;28;21024;-71
2023/08/11 10:43:58;;;;;;;14.07;13.67;;;34.10;84.90;;;;;;5096593;28;20235;-71
2023/08/11 10:46:27;;;;;;;14.17;13.77;;;34.00;83.80;;;;;;5102981;28;20589;-70
2023/08/11 10:48:59;;;;;;;14.07;13.67;;;33.90;86.80;;;;;;5105273;28;20477;-71
2023/08/11 10:51:31;;;;;;;14.43;14.03;;;33.10;89.30;;;;;;5093058;28;20449;-69
2023/08/11 10:54:01;;;;;;;14.67;14.23;;;32.70;88.20;;;;;;5086811;28;20496;-71
2023/08/11 10:56:30;;;;;;;14.00;13.60;;;32.90;88.20;;;;;;5089783;28;20944;-70
2023/08/11 10:59:13;;;;;;;14.70;14.30;;;32.80;89.40;;;;;;5093843;28;20941;-71
2023/08/11 11:01:41;;;;;;;14.53;14.13;;;33.30;86.70;;;;;;5098785;28;20469;-71
2023/08/11 11:04:11;;;;;;;14.13;13.73;;;34.50;85.50;;;;;;5097761;28;20450;-71
2023/08/11 11:06:39;;;;;;;14.40;14.00;;;35.00;84.80;;;;;;5104088;28;20548;-71
2023/08/11 11:09:08;;;;;;;14.50;14.10;;;34.90;86.00;;;;;;5105590;28;20457;-70
2023/08/11 11:11:36;;;;;;;14.30;13.90;;;34.90;85.20;;;;;;5092767;28;20476;-72
2023/08/11 11:14:04;;;;;;;14.43;14.03;;;34.90;85.70;;;;;;5092819;28;21076;-71
2023/08/11 11:16:32;;;;;;;14.10;13.70;;;35.40;85.50;;;;;;5110437;28;20477;-70
2023/08/11 11:18:59;;;;;;;13.97;13.57;;;35.50;83.60;;;;;;5098063;28;20472;-70
2023/08/11 11:21:28;;;;;;;13.43;13.03;;;35.40;83.70;;;;;;5095228;27;20576;-71
2023/08/11 11:23:55;;;;;;;14.50;14.10;;;35.20;81.80;;;;;;5099625;28;21000;-71
2023/08/11 11:26:24;;;;;;;13.70;13.30;;;35.60;80.10;;;;;;5102035;28;20921;-71
2023/08/11 11:28:51;;;;;;;13.80;13.40;;;36.30;80.40;;;;;;5095985;28;20469;-70
2023/08/11 11:31:19;;;;;;;13.40;13.00;;;36.10;80.40;;;;;;5103570;28;20456;-71
2023/08/11 11:33:46;;;;;;;13.57;13.17;;;35.80;78.90;;;;;;5093634;28;20488;-71
2023/08/11 11:36:14;;;;;;;14.20;13.80;;;35.30;78.50;;;;;;5096651;28;20458;-71
2023/08/11 11:38:42;;;;;;;14.17;13.77;;;36.30;77.40;;;;;;5110208;28;20454;-71
2023/08/11 11:41:11;;;;;;;14.73;14.33;;;37.30;77.10;;;;;;5098102;28;20462;-71
2023/08/11 11:43:40;;;;;;;14.23;13.83;;;37.90;75.40;;;;;;5103717;28;20934;-71
2023/08/11 11:46:14;;;;;;;14.17;13.77;;;37.80;74.90;;;;;;5102171;28;20550;-71
2023/08/11 11:48:56;;;;;;;14.13;13.73;;;37.80;71.00;;;;;;5102792;28;20457;-71
2023/08/11 11:51:25;;;;;;;14.00;13.60;;;37.90;73.50;;;;;;5094472;28;20491;-71
2023/08/11 11:53:58;;;;;;;13.13;12.83;;;38.10;72.70;;;;;;5097947;28;20540;-71
2023/08/11 11:56:27;;;;;;;12.80;12.50;;;38.40;70.40;;;;;;5097018;28;20507;-70
2023/08/11 11:58:56;;;;;;;13.43;13.03;;;39.00;67.90;;;;;;5105136;28;20947;-72
2023/08/11 12:01:26;;;;;;;12.90;12.60;;;38.40;69.30;;;;;;5103517;28;20442;-71
2023/08/11 12:03:53;;;;;;;12.40;12.10;;;37.70;67.30;;;;;;5100353;28;20975;-71
2023/08/11 12:06:22;;;;;;;13.30;12.90;;;37.40;68.70;;;;;;5098545;28;20561;-71
2023/08/11 12:08:50;;;;;;;13.30;12.90;;;37.40;68.10;;;;;;5090287;28;20461;-70
2023/08/11 12:11:22;;;;;;;13.80;13.40;;;37.70;68.20;;;;;;5096439;28;20481;-71
2023/08/11 12:13:49;;;;;;;12.90;12.60;;;38.40;65.70;;;;;;5107627;28;20487;-71
2023/08/11 12:16:16;;;;;;;13.57;13.17;;;38.00;65.90;;;;;;5096336;28;20481;-72
2023/08/11 12:18:43;;;;;;;13.67;13.27;;;35.90;66.80;;;;;;5101122;28;20453;-72
2023/08/11 12:21:10;;;;;;;14.37;13.97;;;35.80;67.80;;;;;;5103045;28;20465;-71
2023/08/11 12:23:38;;;;;;;14.37;13.97;;;36.60;67.70;;;;;;5105966;28;20874;-71
2023/08/11 12:26:05;;;;;;;13.03;12.73;;;36.60;68.90;;;;;;5099895;28;20465;-71
2023/08/11 12:28:35;;;;;;;12.90;12.60;;;37.40;68.00;;;;;;5089600;28;20733;-69
2023/08/11 12:31:03;;;;;;;13.33;12.93;;;37.30;67.10;;;;;;5095923;28;20456;-71
2023/08/11 12:33:29;;;;;;;13.37;12.97;;;37.50;66.30;;;;;;5094304;28;20820;-71
2023/08/11 12:35:57;;;;;;;14.13;13.73;;;37.70;65.60;;;;;;5102542;28;20465;-71
2023/08/11 12:38:24;;;;;;;13.80;13.40;;;37.50;65.50;;;;;;5092901;28;20462;-72
2023/08/11 12:40:51;;;;;;;13.40;13.00;;;38.00;65.60;;;;;;5099035;28;20461;-71